Time;durP1;ratioP1;P1;durP2;ratioP2;P2;SDS_P1;SDS_P2;PMS_P1;PMS_P2;Temp;Humidity;BMP_temperature;BMP_pressure;BME280_temperature;BME280_humidity;BME280_pressure;Samples;Min_cycle;Max_cycle;Signal;HPM_P1;HPM_P2
2021/11/09 00:00:41;;;;;;;11.4;6.4;;;;;;;;;;;;;
2021/11/09 00:03:08;;;;;;;11.2;6.4;;;;;;;;;;;;;
2021/11/09 00:05:31;;;;;;;13.5;6.6;;;;;;;;;;;;;
2021/11/09 00:07:57;;;;;;;11.6;6.8;;;;;;;;;;;;;
2021/11/09 00:10:21;;;;;;;12.4;6.2;;;;;;;;;;;;;
2021/11/09 00:12:46;;;;;;;9.8;6.8;;;;;;;;;;;;;
2021/11/09 00:15:12;;;;;;;11.5;6.8;;;;;;;;;;;;;
2021/11/09 00:17:36;;;;;;;13.3;7;;;;;;;;;;;;;
2021/11/09 00:20:01;;;;;;;13.1;7.4;;;;;;;;;;;;;
2021/11/09 00:22:27;;;;;;;11.6;7.6;;;;;;;;;;;;;
2021/11/09 00:24:52;;;;;;;13;8.2;;;;;;;;;;;;;
2021/11/09 00:27:17;;;;;;;11.7;7.3;;;;;;;;;;;;;
2021/11/09 00:29:44;;;;;;;14.8;7.5;;;;;;;;;;;;;
2021/11/09 00:32:08;;;;;;;10.4;7.3;;;;;;;;;;;;;
2021/11/09 00:34:34;;;;;;;13.7;8.3;;;;;;;;;;;;;
2021/11/09 00:37:00;;;;;;;10.8;7.4;;;;;;;;;;;;;
2021/11/09 00:39:25;;;;;;;14.6;7.7;;;;;;;;;;;;;
2021/11/09 00:41:50;;;;;;;14.9;7.9;;;;;;;;;;;;;
2021/11/09 00:44:15;;;;;;;13.9;8.1;;;;;;;;;;;;;
2021/11/09 00:46:51;;;;;;;14.3;8.6;;;;;;;;;;;;;
2021/11/09 00:49:16;;;;;;;17.2;8.9;;;;;;;;;;;;;
2021/11/09 00:51:56;;;;;;;15.6;8.3;;;;;;;;;;;;;
2021/11/09 00:54:21;;;;;;;14.8;7.9;;;;;;;;;;;;;
2021/11/09 00:56:46;;;;;;;11.6;7.1;;;;;;;;;;;;;
2021/11/09 00:59:11;;;;;;;14.3;7.9;;;;;;;;;;;;;
2021/11/09 01:01:36;;;;;;;13.7;7.7;;;;;;;;;;;;;
2021/11/09 01:04:01;;;;;;;13.3;8.9;;;;;;;;;;;;;
2021/11/09 01:06:27;;;;;;;12.8;8.5;;;;;;;;;;;;;
2021/11/09 01:08:52;;;;;;;15.1;8.5;;;;;;;;;;;;;
2021/11/09 01:11:17;;;;;;;15.4;8.5;;;;;;;;;;;;;
2021/11/09 01:13:42;;;;;;;14.4;9;;;;;;;;;;;;;
2021/11/09 01:16:08;;;;;;;15.5;9;;;;;;;;;;;;;
2021/11/09 01:18:33;;;;;;;12;8.2;;;;;;;;;;;;;
2021/11/09 01:20:58;;;;;;;13.5;8.2;;;;;;;;;;;;;
2021/11/09 01:23:23;;;;;;;14.7;7.8;;;;;;;;;;;;;
2021/11/09 01:25:49;;;;;;;15.5;8.2;;;;;;;;;;;;;
2021/11/09 01:28:13;;;;;;;16.1;8.4;;;;;;;;;;;;;
2021/11/09 01:30:38;;;;;;;14.6;7.7;;;;;;;;;;;;;
2021/11/09 01:33:03;;;;;;;10.9;7.3;;;;;;;;;;;;;
2021/11/09 01:35:30;;;;;;;15.2;8.2;;;;;;;;;;;;;
2021/11/09 01:37:55;;;;;;;12.7;7.8;;;;;;;;;;;;;
2021/11/09 01:40:22;;;;;;;16;8.2;;;;;;;;;;;;;
2021/11/09 01:42:46;;;;;;;13.9;8.3;;;;;;;;;;;;;
2021/11/09 01:45:13;;;;;;;14.8;8.2;;;;;;;;;;;;;
2021/11/09 01:47:38;;;;;;;14.6;8.5;;;;;;;;;;;;;
2021/11/09 01:50:03;;;;;;;12.6;8.5;;;;;;;;;;;;;
2021/11/09 01:52:28;;;;;;;14.8;8;;;;;;;;;;;;;
2021/11/09 01:54:55;;;;;;;15.2;8.4;;;;;;;;;;;;;
2021/11/09 01:57:19;;;;;;;17.1;8.5;;;;;;;;;;;;;
2021/11/09 01:59:44;;;;;;;13.3;8.6;;;;;;;;;;;;;
2021/11/09 02:02:10;;;;;;;15.6;9.2;;;;;;;;;;;;;
2021/11/09 02:04:37;;;;;;;13.8;6.8;;;;;;;;;;;;;
2021/11/09 02:07:02;;;;;;;11.4;4.2;;;;;;;;;;;;;
2021/11/09 02:09:27;;;;;;;4.2;2.3;;;;;;;;;;;;;
2021/11/09 02:11:52;;;;;;;3.4;2.6;;;;;;;;;;;;;
2021/11/09 02:14:18;;;;;;;3.5;2.3;;;;;;;;;;;;;
2021/11/09 02:16:43;;;;;;;4.1;2.7;;;;;;;;;;;;;
2021/11/09 02:19:10;;;;;;;3.7;2.7;;;;;;;;;;;;;
2021/11/09 02:21:35;;;;;;;5.5;2.6;;;;;;;;;;;;;
2021/11/09 02:24:01;;;;;;;8.3;2.9;;;;;;;;;;;;;
2021/11/09 02:26:26;;;;;;;4.1;2.8;;;;;;;;;;;;;
2021/11/09 02:28:51;;;;;;;3.5;2.4;;;;;;;;;;;;;
2021/11/09 02:31:16;;;;;;;4.1;2.5;;;;;;;;;;;;;
2021/11/09 02:33:42;;;;;;;5.4;3.1;;;;;;;;;;;;;
2021/11/09 02:36:08;;;;;;;2.9;2.5;;;;;;;;;;;;;
2021/11/09 02:41:14;;;;;;;4.2;2.7;;;;;;;;;;;;;
2021/11/09 02:43:39;;;;;;;2.8;2.5;;;;;;;;;;;;;
2021/11/09 02:46:27;;;;;;;3.4;2.7;;;;;;;;;;;;;
2021/11/09 02:48:32;;;;;;;4.4;2.8;;;;;;;;;;;;;
2021/11/09 02:50:59;;;;;;;4.7;2.9;;;;;;;;;;;;;
2021/11/09 02:53:29;;;;;;;4.2;2.9;;;;;;;;;;;;;
2021/11/09 02:55:48;;;;;;;5.2;3;;;;;;;;;;;;;
2021/11/09 02:58:18;;;;;;;3.3;2.6;;;;;;;;;;;;;
2021/11/09 03:01:08;;;;;;;4.7;3.1;;;;;;;;;;;;;
2021/11/09 03:03:29;;;;;;;4.2;3.1;;;;;;;;;;;;;
2021/11/09 03:05:50;;;;;;;3.5;2.9;;;;;;;;;;;;;
2021/11/09 03:08:26;;;;;;;8.1;3.3;;;;;;;;;;;;;
2021/11/09 03:10:55;;;;;;;4.3;2.9;;;;;;;;;;;;;
2021/11/09 03:13:21;;;;;;;3.9;2.9;;;;;;;;;;;;;
2021/11/09 03:15:45;;;;;;;6.1;2.7;;;;;;;;;;;;;
2021/11/09 03:18:13;;;;;;;6.5;3;;;;;;;;;;;;;
2021/11/09 03:20:39;;;;;;;5;2.8;;;;;;;;;;;;;
2021/11/09 03:40:14;;;;;;;5.2;3.6;;;;;;;;;;;;;
2021/11/09 03:45:03;;;;;;;9.9;4.2;;;;;;;;;;;;;
2021/11/09 03:47:22;;;;;;;4.9;3.2;;;;;;;;;;;;;
2021/11/09 03:49:48;;;;;;;4.6;3.1;;;;;;;;;;;;;
2021/11/09 03:52:15;;;;;;;3.6;2.9;;;;;;;;;;;;;
2021/11/09 03:57:07;;;;;;;4.9;3.6;;;;;;;;;;;;;
2021/11/09 03:59:37;;;;;;;6.2;3.1;;;;;;;;;;;;;
2021/11/09 04:02:35;;;;;;;7;3.4;;;;;;;2.96;86.45313;944.2098;;;;
2021/11/09 04:04:58;;;;;;;8.9;3.5;;;;;;;3.05;86.26953;944.2364;;;;
2021/11/09 04:07:31;;;;;;;6.2;3.5;;;;;;;3.12;86.35156;944.2458;;;;
2021/11/09 04:10:05;;;;;;;5.2;3.1;;;;;;;3.04;86.23438;944.2925;;;;
2021/11/09 04:12:28;;;;;;;4.5;3.2;;;;;;;3.05;86.34863;944.2481;;;;
2021/11/09 04:14:47;;;;;;;5.3;3.5;;;;;;;3.04;86.77441;944.3486;;;;
2021/11/09 04:17:12;;;;;;;9.5;4.1;;;;;;;3.2;86.44727;944.3597;;;;
2021/11/09 04:20:14;;;;;;;4.8;3.4;;;;;;;3.18;85.84863;944.3401;;;;
2021/11/09 04:23:19;;;;;;;7.8;3.8;;;;;;;2.76;87.49121;944.3503;;;;
2021/11/09 04:25:53;;;;;;;6.8;4.1;;;;;;;2.72;88.24219;944.4205;;;;
2021/11/09 04:27:41;;;;;;;7.9;4.4;;;;;;;2.7;88.27441;944.4253;;;;
2021/11/09 04:30:25;;;;;;;7.6;4;;;;;;;2.46;89.5791;944.4006;;;;
2021/11/09 04:32:46;;;;;;;6.1;4.5;;;;;;;2.5;90.39355;944.4299;;;;
2021/11/09 04:40:29;;;;;;;8.5;4.2;;;;;;;2.48;89.85352;944.3748;;;;
2021/11/09 04:48:02;;;;;;;8.7;4.4;;;;;;;2.18;91.79297;944.323;;;;
2021/11/09 04:52:43;;;;;;;6.7;4.4;;;;;;;2.25;91.1709;944.2863;;;;
2021/11/09 05:01:48;;;;;;;8.2;4.6;;;;;;;2.05;92.14648;944.3134;;;;
2021/11/09 05:08:49;;;;;;;17.2;6;;;;;;;2.08;91.97168;944.4805;;;;
2021/11/09 05:11:09;;;;;;;12.9;4.9;;;;;;;2.05;92.52539;944.5009;;;;
2021/11/09 05:16:13;;;;;;;7.7;4.6;;;;;;;1.96;91.86719;944.5;;;;
2021/11/09 05:18:41;;;;;;;10.4;4.7;;;;;;;1.85;92.22461;944.5017;;;;
2021/11/09 05:21:07;;;;;;;12.5;4.7;;;;;;;1.9;92.22461;944.3951;;;;
2021/11/09 05:23:31;;;;;;;7.6;4.5;;;;;;;1.86;92.73145;944.5337;;;;
2021/11/09 05:25:59;;;;;;;9;4.2;;;;;;;1.66;93.40234;944.493;;;;
2021/11/09 05:28:24;;;;;;;10.3;4.4;;;;;;;1.56;94.35254;944.5051;;;;
2021/11/09 05:30:50;;;;;;;8.5;4.5;;;;;;;1.58;94.67188;944.4839;;;;
2021/11/09 05:33:14;;;;;;;10.3;4.7;;;;;;;1.58;94.7168;944.5247;;;;
2021/11/09 05:35:40;;;;;;;8.2;4.4;;;;;;;1.82;94.05371;944.5356;;;;
2021/11/09 05:38:06;;;;;;;11.9;4.9;;;;;;;1.87;93.60449;944.5204;;;;
2021/11/09 05:40:33;;;;;;;10.6;4.8;;;;;;;1.88;93.0918;944.5571;;;;
2021/11/09 05:42:55;;;;;;;10.8;4.6;;;;;;;1.76;92.64063;944.6277;;;;
2021/11/09 05:45:21;;;;;;;13.3;6.1;;;;;;;1.69;92.96289;944.6516;;;;
2021/11/09 05:47:46;;;;;;;7.7;4.1;;;;;;;1.6;92.89844;944.7133;;;;
2021/11/09 05:50:14;;;;;;;7.1;4.8;;;;;;;1.65;92.56152;944.7477;;;;
2021/11/09 05:52:39;;;;;;;12.3;5.1;;;;;;;1.77;91.99609;944.6652;;;;
2021/11/09 05:55:06;;;;;;;10.2;5.6;;;;;;;1.82;91.29004;944.7325;;;;
2021/11/09 05:57:31;;;;;;;10.3;4.7;;;;;;;1.66;91.30176;944.731;;;;
2021/11/09 05:59:58;;;;;;;7.2;4.4;;;;;;;1.69;90.35645;944.7841;;;;
2021/11/09 06:02:24;;;;;;;8.8;4.6;;;;;;;1.6;90.39355;944.7678;;;;
2021/11/09 06:04:54;;;;;;;9.2;4.8;;;;;;;1.65;89.3291;944.8535;;;;
2021/11/09 06:07:16;;;;;;;8.3;4.8;;;;;;;1.43;90.64746;944.8572;;;;
2021/11/09 06:09:41;;;;;;;7.1;4.6;;;;;;;1.59;90.70508;944.8769;;;;
2021/11/09 06:12:06;;;;;;;10.7;4.9;;;;;;;1.76;89.81055;944.9055;;;;
2021/11/09 06:14:31;;;;;;;8.9;5;;;;;;;1.66;90.2041;944.9064;;;;
2021/11/09 06:16:57;;;;;;;8;4.7;;;;;;;1.63;90.32324;945.019;;;;
2021/11/09 06:19:25;;;;;;;10.6;5;;;;;;;1.41;91.03516;944.9666;;;;
2021/11/09 06:21:50;;;;;;;7.6;4.8;;;;;;;1.34;91.86816;944.9807;;;;
2021/11/09 06:24:15;;;;;;;8.3;5.1;;;;;;;1.21;92.13184;944.9886;;;;
2021/11/09 06:26:41;;;;;;;6.9;4.8;;;;;;;1.4;91.64746;945.0074;;;;
2021/11/09 06:29:07;;;;;;;10.7;4.6;;;;;;;1.47;91.06836;945.0006;;;;
2021/11/09 06:31:34;;;;;;;9.3;5.3;;;;;;;1.38;91.08496;945.016;;;;
2021/11/09 06:34:23;;;;;;;12.4;5.6;;;;;;;1.31;91.35938;945.0134;;;;
2021/11/09 06:36:51;;;;;;;12;5.3;;;;;;;1.2;91.85059;945.0217;;;;
2021/11/09 06:39:16;;;;;;;13;5.3;;;;;;;1.08;92.31445;944.9943;;;;
2021/11/09 06:41:45;;;;;;;9.8;5.8;;;;;;;1.1;92.81152;944.975;;;;
2021/11/09 06:44:10;;;;;;;9.4;5.4;;;;;;;1.07;92.6582;945.0079;;;;
2021/11/09 06:49:11;;;;;;;27.6;12.4;;;;;;;1.09;92.97559;944.9877;;;;
2021/11/09 06:51:36;;;;;;;23;11.2;;;;;;;1.1;93.35645;944.9348;;;;
2021/11/09 06:54:01;;;;;;;18.5;9.6;;;;;;;1.34;93.42188;944.8934;;;;
2021/11/09 06:56:26;;;;;;;18.7;10.5;;;;;;;1.77;91.8623;944.8411;;;;
2021/11/09 06:58:52;;;;;;;12.6;7.9;;;;;;;2.14;89.46582;944.8418;;;;
2021/11/09 07:01:16;;;;;;;12.4;6.9;;;;;;;2.55;87.51563;944.8901;;;;
2021/11/09 07:03:44;;;;;;;10.7;6.3;;;;;;;2.79;85.61133;944.8806;;;;
2021/11/09 07:06:11;;;;;;;9.6;6.1;;;;;;;2.81;85.00977;944.8867;;;;
2021/11/09 07:08:36;;;;;;;10.9;5.8;;;;;;;2.99;84.07129;944.8895;;;;
2021/11/09 07:11:03;;;;;;;16;6.3;;;;;;;3.41;82.92969;944.8226;;;;
2021/11/09 07:13:26;;;;;;;12.8;6.4;;;;;;;3.51;81.26367;944.7874;;;;
2021/11/09 07:15:53;;;;;;;10.4;5.8;;;;;;;3.8;79.93848;944.8181;;;;
2021/11/09 07:18:18;;;;;;;7.6;5;;;;;;;3.81;79.58984;944.7629;;;;
2021/11/09 07:20:44;;;;;;;8.8;4.7;;;;;;;3.69;79.82617;944.7911;;;;
2021/11/09 07:23:09;;;;;;;7.3;4.8;;;;;;;3.38;80.93652;944.7503;;;;
2021/11/09 07:25:37;;;;;;;7.7;4.7;;;;;;;3.82;80.58301;944.6508;;;;
2021/11/09 07:28:02;;;;;;;15.7;5.6;;;;;;;4.83;76.62598;944.6867;;;;
2021/11/09 07:30:33;;;;;;;5.9;4.2;;;;;;;5.26;73.50098;944.7286;;;;
2021/11/09 07:32:53;;;;;;;8.5;4.3;;;;;;;5.48;73.0752;944.7894;;;;
2021/11/09 07:35:19;;;;;;;7;4.6;;;;;;;5.14;73.37793;944.7762;;;;
2021/11/09 07:37:44;;;;;;;6.2;3.6;;;;;;;5.24;73.67773;944.7822;;;;
2021/11/09 07:40:13;;;;;;;5.1;3.7;;;;;;;5.64;72.67383;944.6878;;;;
2021/11/09 07:42:37;;;;;;;4.5;3.7;;;;;;;6.43;69.6875;944.7434;;;;
2021/11/09 07:45:02;;;;;;;8.1;4.9;;;;;;;6.62;68.17969;944.6602;;;;
2021/11/09 07:47:27;;;;;;;7.9;4.7;;;;;;;6.69;67.94141;944.6498;;;;
2021/11/09 07:49:54;;;;;;;11;5.1;;;;;;;6.97;67.2832;944.5811;;;;
2021/11/09 07:52:19;;;;;;;13.1;4.5;;;;;;;6.98;66.68457;944.6178;;;;
2021/11/09 07:54:49;;;;;;;4.4;3.2;;;;;;;7.24;65.02539;944.6458;;;;
2021/11/09 07:57:13;;;;;;;4.8;3.5;;;;;;;7.42;64.48828;944.7463;;;;
2021/11/09 07:59:40;;;;;;;8.9;4.6;;;;;;;7.56;63.88281;944.6697;;;;
2021/11/09 08:02:04;;;;;;;6.8;3.9;;;;;;;8.66;61.19531;944.5457;;;;
2021/11/09 08:04:31;;;;;;;3.2;2.5;;;;;;;9.15;58.56738;944.55;;;;
2021/11/09 08:06:55;;;;;;;2.9;2.3;;;;;;;10;56.44727;944.5715;;;;
2021/11/09 08:09:22;;;;;;;5.7;2.8;;;;;;;11.13;52.2959;944.5151;;;;
2021/11/09 08:11:44;;;;;;;4.4;2.6;;;;;;;11.56;50.18457;944.5187;;;;
2021/11/09 08:14:07;;;;;;;7.7;3.1;;;;;;;12.73;48.54102;944.483;;;;
2021/11/09 08:16:32;;;;;;;5.8;3;;;;;;;15.3;41.85547;944.4607;;;;
2021/11/09 08:18:58;;;;;;;5.5;2.9;;;;;;;16.18;39.91602;944.4224;;;;
2021/11/09 08:21:24;;;;;;;6.8;2.7;;;;;;;17.26;37.32422;944.4817;;;;
2021/11/09 08:23:49;;;;;;;4.3;2.4;;;;;;;17.05;37.89844;944.4272;;;;
2021/11/09 08:26:16;;;;;;;8.3;3.2;;;;;;;15.45;39.36426;944.4562;;;;
2021/11/09 08:28:41;;;;;;;4.7;2.9;;;;;;;14.14;41.80273;944.5427;;;;
2021/11/09 08:31:09;;;;;;;5.7;3.1;;;;;;;12.83;45.41895;944.5865;;;;
2021/11/09 08:33:32;;;;;;;4.3;3.1;;;;;;;11.83;47.9834;944.5852;;;;
2021/11/09 08:36:40;;;;;;;9.3;3.2;;;;;;;12.53;46.21387;944.5427;;;;
2021/11/09 08:39:04;;;;;;;4.1;2.2;;;;;;;14.52;41.80371;944.5712;;;;
2021/11/09 08:41:38;;;;;;;5.2;2.4;;;;;;;13.95;42.71582;944.5541;;;;
2021/11/09 08:44:04;;;;;;;5.2;2.4;;;;;;;9.84;51.83301;944.6358;;;;
2021/11/09 08:46:22;;;;;;;4.8;2.6;;;;;;;9.16;54.32324;944.597;;;;
2021/11/09 08:48:48;;;;;;;4.9;2.6;;;;;;;7.75;59.68164;944.5706;;;;
2021/11/09 08:51:13;;;;;;;3.9;2.1;;;;;;;6.82;62.07617;944.5874;;;;
2021/11/09 08:53:42;;;;;;;4.9;2.6;;;;;;;7.17;63.19238;944.4841;;;;
2021/11/09 08:56:23;;;;;;;3.5;2.3;;;;;;;7.05;62.33594;944.5128;;;;
2021/11/09 09:01:01;;;;;;;12;3.8;;;;;;;6.85;63.7666;944.4877;;;;
2021/11/09 09:01:17;;;;;;;11.7;3.3;;;;;;;6.82;63.7627;944.4583;;;;
2021/11/09 09:05:45;;;;;;;13;3.3;;;;;;;6.79;62.10645;944.4531;;;;
2021/11/09 09:08:13;;;;;;;4.6;2.4;;;;;;;6.73;64.12207;944.4674;;;;
2021/11/09 09:10:37;;;;;;;6.4;2.9;;;;;;;6.82;62.87891;944.4764;;;;
2021/11/09 09:13:03;;;;;;;3.3;2.3;;;;;;;6.99;63.95801;944.4885;;;;
2021/11/09 09:15:30;;;;;;;5.7;3;;;;;;;6.91;60.95703;944.5516;;;;
2021/11/09 09:17:56;;;;;;;4.2;2.8;;;;;;;6.95;62.9209;944.5125;;;;
2021/11/09 09:20:23;;;;;;;5.2;2.7;;;;;;;7.04;62.44727;944.51;;;;
2021/11/09 09:23:02;;;;;;;4.4;2.8;;;;;;;7.06;63.04004;944.5798;;;;
2021/11/09 09:26:44;;;;;;;5.4;3.7;;;;;;;6.93;64.86426;944.6225;;;;
2021/11/09 09:30:31;;;;;;;5;3.9;;;;;;;6.87;71.02637;944.5525;;;;
2021/11/09 09:33:33;;;;;;;7.3;4.3;;;;;;;6.91;71.42969;944.6384;;;;
2021/11/09 09:54:40;;;;;;;7;4.1;;;;;;;6.99;71.2627;944.5779;;;;
2021/11/09 09:56:52;;;;;;;5.6;4.2;;;;;;;7.08;71.12891;944.5873;;;;
2021/11/09 09:59:12;;;;;;;6.3;4.2;;;;;;;7.18;71.39453;944.593;;;;
2021/11/09 10:01:37;;;;;;;5.6;4;;;;;;;7.61;69.02832;944.5773;;;;
2021/11/09 10:04:02;;;;;;;5.2;4;;;;;;;8.21;67.60352;944.5204;;;;
2021/11/09 10:06:29;;;;;;;5.5;4;;;;;;;8.83;64.52734;944.6273;;;;
2021/11/09 10:08:56;;;;;;;5.5;3.5;;;;;;;8.69;63.89355;944.6328;;;;
2021/11/09 10:11:20;;;;;;;4.4;3.7;;;;;;;8.92;63.4375;944.686;;;;
2021/11/09 10:13:48;;;;;;;5.3;3.9;;;;;;;8.59;64.29883;944.6776;;;;
2021/11/09 10:16:13;;;;;;;4.9;3.6;;;;;;;8.33;64.16797;944.6983;;;;
2021/11/09 10:18:39;;;;;;;4.8;3.4;;;;;;;7.98;66.10449;944.7615;;;;
2021/11/09 10:21:04;;;;;;;4.4;3.7;;;;;;;7.77;66.93262;944.7112;;;;
2021/11/09 10:23:29;;;;;;;5;3.7;;;;;;;7.65;68.19531;944.717;;;;
2021/11/09 10:25:59;;;;;;;6.7;4.7;;;;;;;7.33;70.88867;944.7211;;;;
2021/11/09 10:28:21;;;;;;;5.8;4.5;;;;;;;7.36;70.64258;944.7098;;;;
2021/11/09 10:30:46;;;;;;;7;4.4;;;;;;;7.39;71.2832;944.6269;;;;
2021/11/09 10:33:13;;;;;;;5.4;4.2;;;;;;;7.45;70.44336;944.6663;;;;
2021/11/09 10:35:39;;;;;;;5.1;3.7;;;;;;;7.57;68.52246;944.6628;;;;
2021/11/09 10:38:04;;;;;;;5.3;4.1;;;;;;;7.56;69.73535;944.6493;;;;
2021/11/09 10:40:29;;;;;;;6.1;4.3;;;;;;;7.5;69.65723;944.5798;;;;
2021/11/09 10:42:54;;;;;;;4.7;3.9;;;;;;;7.51;70.40527;944.5358;;;;
2021/11/09 10:45:19;;;;;;;4.5;3.9;;;;;;;7.73;68.30957;944.5198;;;;
2021/11/09 10:47:44;;;;;;;5.3;4.2;;;;;;;7.74;68.65137;944.5653;;;;
2021/11/09 10:50:10;;;;;;;6.4;4.1;;;;;;;7.48;67.9873;944.5549;;;;
2021/11/09 10:52:36;;;;;;;6.5;3.9;;;;;;;7.47;67.59961;944.5598;;;;
2021/11/09 10:55:03;;;;;;;5.9;4.2;;;;;;;7.67;69.26563;944.4927;;;;
2021/11/09 10:57:30;;;;;;;6.3;4;;;;;;;7.83;68.33887;944.4534;;;;
2021/11/09 11:00:00;;;;;;;5;3.8;;;;;;;7.94;67.50293;944.4249;;;;
2021/11/09 11:04:40;;;;;;;6.6;4.4;;;;;;;7.96;69.56152;944.3779;;;;
2021/11/09 11:07:09;;;;;;;6.3;4.4;;;;;;;8.2;67.81641;944.3969;;;;
2021/11/09 11:09:36;;;;;;;6.1;4;;;;;;;8.07;67.75293;944.368;;;;
2021/11/09 11:12:05;;;;;;;6.4;4.7;;;;;;;8.05;69.04297;944.3958;;;;
2021/11/09 11:14:26;;;;;;;7.5;4.3;;;;;;;7.97;70.17578;944.4092;;;;
2021/11/09 11:16:52;;;;;;;5.7;4.2;;;;;;;8.14;70.3291;944.3856;;;;
2021/11/09 11:19:18;;;;;;;5.6;4.8;;;;;;;8.5;68.72754;944.4108;;;;
2021/11/09 11:21:43;;;;;;;6.2;4.6;;;;;;;8.73;67.16211;944.3855;;;;
2021/11/09 11:24:09;;;;;;;5.6;4.3;;;;;;;8.95;65.58203;944.331;;;;
2021/11/09 11:26:33;;;;;;;7.2;4.4;;;;;;;9.09;65.56934;944.323;;;;
2021/11/09 11:28:58;;;;;;;4.5;3.6;;;;;;;9.55;64.07715;944.3478;;;;
2021/11/09 11:31:23;;;;;;;5.6;3.8;;;;;;;10.75;60.39453;944.2935;;;;
2021/11/09 11:33:50;;;;;;;4.5;3.6;;;;;;;13.82;51.05566;944.2683;;;;
2021/11/09 11:36:14;;;;;;;5.6;3.6;;;;;;;16.51;43.99805;944.2355;;;;
2021/11/09 11:38:44;;;;;;;3.5;3.1;;;;;;;17.1;41.21777;944.1203;;;;
2021/11/09 11:41:09;;;;;;;4.6;3.5;;;;;;;17.22;41.29785;944.1936;;;;
2021/11/09 11:43:54;;;;;;;4.5;3.2;;;;;;;17.67;40.15625;944.2346;;;;
2021/11/09 11:46:19;;;;;;;4.9;3.3;;;;;;;18.04;39.20313;944.2256;;;;
2021/11/09 11:48:44;;;;;;;3.4;3.1;;;;;;;18.48;37.96289;944.22;;;;
2021/11/09 11:51:09;;;;;;;5.2;3.5;;;;;;;18.36;38.24316;944.1573;;;;
2021/11/09 11:53:34;;;;;;;4;3.4;;;;;;;19.4;35.72363;944.139;;;;
2021/11/09 11:56:00;;;;;;;5.2;3.1;;;;;;;19.59;36.42773;944.076;;;;
2021/11/09 11:58:25;;;;;;;4.3;3;;;;;;;19.68;34.89551;943.9683;;;;
2021/11/09 12:00:55;;;;;;;4;3;;;;;;;19.67;34.4043;944.0558;;;;
2021/11/09 12:03:16;;;;;;;3.9;3.1;;;;;;;21.03;32.48828;944.0078;;;;
2021/11/09 12:05:41;;;;;;;3.7;3.3;;;;;;;22.15;30.93945;943.9539;;;;
2021/11/09 12:08:07;;;;;;;3.9;3.2;;;;;;;20.81;32.51855;943.9779;;;;
2021/11/09 12:10:32;;;;;;;4.2;3.2;;;;;;;20.33;32.64648;943.9495;;;;
2021/11/09 12:12:57;;;;;;;4.6;3.2;;;;;;;20.81;32.6123;944.0038;;;;
2021/11/09 12:15:22;;;;;;;3.2;2.9;;;;;;;21.1;31.53418;944.0023;;;;
2021/11/09 12:17:47;;;;;;;4.2;3;;;;;;;21.89;30.86328;943.9821;;;;
2021/11/09 12:20:14;;;;;;;3.7;2.9;;;;;;;21.53;31.38867;943.8865;;;;
2021/11/09 12:22:39;;;;;;;5.7;3.1;;;;;;;21.69;30.74414;943.9727;;;;
2021/11/09 12:25:04;;;;;;;3.1;2.7;;;;;;;21.43;31.88477;943.9408;;;;
2021/11/09 12:27:31;;;;;;;3.8;3.2;;;;;;;22.93;29.19727;943.8585;;;;
2021/11/09 12:29:57;;;;;;;3.1;2.8;;;;;;;24.45;27.33984;943.8538;;;;
2021/11/09 12:33:06;;;;;;;3.3;2.8;;;;;;;23.33;28.64844;943.8792;;;;
2021/11/09 12:35:30;;;;;;;4.4;3.3;;;;;;;22.97;29.08203;943.7996;;;;
2021/11/09 12:37:55;;;;;;;3.3;2.8;;;;;;;23.32;28.8584;943.8692;;;;
2021/11/09 12:40:20;;;;;;;4.7;2.9;;;;;;;23.1;28.9375;943.8066;;;;
2021/11/09 12:42:46;;;;;;;6;3;;;;;;;24.8;26.90234;943.8275;;;;
2021/11/09 12:45:11;;;;;;;3.8;2.7;;;;;;;23.52;28.16602;943.7972;;;;
2021/11/09 12:47:37;;;;;;;4;3.1;;;;;;;21.74;30.37305;943.8177;;;;
2021/11/09 12:50:03;;;;;;;4.6;3.1;;;;;;;23.03;29.3457;943.7678;;;;
2021/11/09 12:52:28;;;;;;;4.5;3;;;;;;;24.92;26.58008;943.7718;;;;
2021/11/09 12:54:53;;;;;;;3.7;3;;;;;;;24.62;26.84473;943.754;;;;
2021/11/09 12:57:18;;;;;;;4.5;2.9;;;;;;;25.63;25.80664;943.713;;;;
2021/11/09 12:59:50;;;;;;;2.9;2.6;;;;;;;27.34;23.62695;943.6919;;;;
2021/11/09 13:02:13;;;;;;;3.4;2.6;;;;;;;27.69;22.89746;943.7258;;;;
2021/11/09 13:04:44;;;;;;;3.2;2.9;;;;;;;27.36;22.81055;943.7142;;;;
2021/11/09 13:07:05;;;;;;;3.2;2.8;;;;;;;26.5;23.91504;943.7903;;;;
2021/11/09 13:09:26;;;;;;;3.3;2.6;;;;;;;26.46;24.31543;943.7251;;;;
2021/11/09 13:11:50;;;;;;;3.1;2.7;;;;;;;24.69;26.09375;943.7271;;;;
2021/11/09 13:14:14;;;;;;;2.9;2.3;;;;;;;25.31;25.23242;943.6747;;;;
2021/11/09 13:16:41;;;;;;;4.5;2.6;;;;;;;24.26;26.39844;943.6756;;;;
2021/11/09 13:19:06;;;;;;;3.9;2.5;;;;;;;23.29;27.58691;943.6757;;;;
2021/11/09 13:21:32;;;;;;;3.9;2.6;;;;;;;23.07;28.1377;943.6196;;;;
2021/11/09 13:23:57;;;;;;;3.2;2.8;;;;;;;23.62;27.34961;943.5756;;;;
2021/11/09 13:26:23;;;;;;;3.8;3.1;;;;;;;22.61;28.53027;943.7188;;;;
2021/11/09 13:28:48;;;;;;;3.4;2.9;;;;;;;23.78;27.1582;943.6292;;;;
2021/11/09 13:31:15;;;;;;;3.9;2.9;;;;;;;24.37;26.58203;943.6395;;;;
2021/11/09 13:33:41;;;;;;;4.7;2.9;;;;;;;24.91;26.0127;943.5912;;;;
2021/11/09 13:36:06;;;;;;;3.9;2.8;;;;;;;24.91;25.45801;943.4961;;;;
2021/11/09 13:38:35;;;;;;;3.2;2.8;;;;;;;24.34;25.89648;943.4932;;;;
2021/11/09 13:40:57;;;;;;;4.8;2.8;;;;;;;24.2;26.75977;943.5831;;;;
2021/11/09 13:43:28;;;;;;;3;2.5;;;;;;;23.28;27.9043;943.6753;;;;
2021/11/09 13:45:49;;;;;;;3.2;2.9;;;;;;;23.7;27.27148;943.5742;;;;
2021/11/09 13:48:14;;;;;;;3;2.7;;;;;;;24.45;26.30371;943.6149;;;;
2021/11/09 13:50:40;;;;;;;2.9;2.6;;;;;;;24.28;26.43457;943.6816;;;;
2021/11/09 13:53:04;;;;;;;3.8;2.5;;;;;;;24.21;26.60742;943.6852;;;;
2021/11/09 13:55:29;;;;;;;4;2.8;;;;;;;24.5;26.29492;943.5612;;;;
2021/11/09 13:57:54;;;;;;;3.7;2.7;;;;;;;24.76;25.95703;943.6259;;;;
2021/11/09 14:00:19;;;;;;;3.2;2.4;;;;;;;24.93;25.50586;943.6182;;;;
2021/11/09 14:02:53;;;;;;;3.3;2.7;;;;;;;24.18;26.81738;943.7344;;;;
2021/11/09 14:05:34;;;;;;;4.7;2.5;;;;;;;24.69;26.30664;943.7458;;;;
2021/11/09 14:07:56;;;;;;;4.8;3.1;;;;;;;25.02;25.65234;943.6951;;;;
2021/11/09 14:10:20;;;;;;;3.4;2.9;;;;;;;25.1;25.82227;943.5959;;;;
2021/11/09 14:15:09;;;;;;;4;2.4;;;;;;;25.59;24.94141;943.6027;;;;
2021/11/09 14:17:17;;;;;;;2.5;2.1;;;;;;;25.62;24.93164;943.546;;;;
2021/11/09 14:19:42;;;;;;;5.2;2.8;;;;;;;25.03;25.44141;943.5572;;;;
2021/11/09 14:22:07;;;;;;;4;2.5;;;;;;;23.81;26.7373;943.4899;;;;
2021/11/09 14:24:32;;;;;;;3.6;2.8;;;;;;;21.05;30.39551;943.6106;;;;
2021/11/09 14:26:59;;;;;;;3.8;2.7;;;;;;;19.33;33.20117;943.5449;;;;
2021/11/09 14:29:24;;;;;;;5.5;2.7;;;;;;;17.89;35.82227;943.6539;;;;
2021/11/09 14:31:49;;;;;;;4.4;2.8;;;;;;;16.61;38.39258;943.5411;;;;
2021/11/09 14:34:14;;;;;;;4.9;2.9;;;;;;;15.21;41.4668;943.5231;;;;
2021/11/09 14:36:40;;;;;;;6.2;3.2;;;;;;;14.61;43.27637;943.4639;;;;
2021/11/09 14:39:05;;;;;;;5.6;3.3;;;;;;;13.59;46.0498;943.557;;;;
2021/11/09 14:41:37;;;;;;;8.3;3.1;;;;;;;13.15;47.03809;943.7042;;;;
2021/11/09 14:43:55;;;;;;;3.8;2.9;;;;;;;12.82;48.57422;943.7073;;;;
2021/11/09 14:46:26;;;;;;;5.6;3.4;;;;;;;12.16;50.89551;943.6951;;;;
2021/11/09 14:48:54;;;;;;;7.4;3.4;;;;;;;11.81;52.41211;943.635;;;;
2021/11/09 14:51:14;;;;;;;4.7;2.9;;;;;;;11.24;54.35742;943.6046;;;;
2021/11/09 14:53:40;;;;;;;5.7;3.7;;;;;;;10.49;57.20801;943.6959;;;;
2021/11/09 14:56:03;;;;;;;3.6;2.6;;;;;;;10.52;57.02832;943.6884;;;;
2021/11/09 14:58:26;;;;;;;4;3;;;;;;;10.39;57.60547;943.6882;;;;
2021/11/09 15:00:52;;;;;;;5.6;3.3;;;;;;;10.33;57.81348;943.6592;;;;
2021/11/09 15:03:17;;;;;;;9.9;4.5;;;;;;;10.12;59.39551;943.7238;;;;
2021/11/09 15:05:44;;;;;;;8.5;3.4;;;;;;;9.81;60.85645;943.8517;;;;
2021/11/09 15:08:22;;;;;;;9.4;4.2;;;;;;;9.7;61.10352;943.9326;;;;
2021/11/09 18:40:47;;;;;;;18.1;11.7;;;;;;;;;;;;;
2021/11/09 18:43:14;;;;;;;16.3;12.7;;;;;;;;;;;;;
2021/11/09 18:45:39;;;;;;;14;9.9;;;;;;;;;;;;;
2021/11/09 18:48:04;;;;;;;15.7;9.7;;;;;;;;;;;;;
2021/11/09 18:50:29;;;;;;;14.8;9;;;;;;;;;;;;;
2021/11/09 18:52:54;;;;;;;14.1;9.7;;;;;;;;;;;;;
2021/11/09 18:55:19;;;;;;;14.8;9.9;;;;;;;;;;;;;
2021/11/09 18:57:44;;;;;;;16.4;10.6;;;;;;;;;;;;;
2021/11/09 19:00:10;;;;;;;12.1;8.5;;;;;;;;;;;;;
2021/11/09 19:02:39;;;;;;;12.7;7.5;;;;;;;;;;;;;
2021/11/09 19:05:00;;;;;;;8.9;6.6;;;;;;;;;;;;;
2021/11/09 19:07:25;;;;;;;9.5;6.6;;;;;;;;;;;;;
2021/11/09 19:09:50;;;;;;;10.5;7.3;;;;;;;;;;;;;
2021/11/09 19:12:15;;;;;;;12.2;7.8;;;;;;;;;;;;;
2021/11/09 19:14:41;;;;;;;15.2;9.4;;;;;;;;;;;;;
2021/11/09 19:17:06;;;;;;;15.4;9.3;;;;;;;;;;;;;
2021/11/09 19:19:31;;;;;;;15.7;9.6;;;;;;;;;;;;;
2021/11/09 19:22:00;;;;;;;15.4;9;;;;;;;;;;;;;
2021/11/09 19:24:25;;;;;;;11.8;7.5;;;;;;;;;;;;;
2021/11/09 19:26:55;;;;;;;20.3;9.5;;;;;;;;;;;;;
2021/11/09 19:29:22;;;;;;;18.4;11.4;;;;;;;;;;;;;
2021/11/09 19:34:16;;;;;;;24.4;13.7;;;;;;;;;;;;;
2021/11/09 19:36:38;;;;;;;94.1;37.4;;;;;;;;;;;;;
2021/11/09 19:39:03;;;;;;;27.5;16.5;;;;;;;;;;;;;
2021/11/09 19:41:28;;;;;;;25.1;16.1;;;;;;;;;;;;;
2021/11/09 19:43:56;;;;;;;31.4;17;;;;;;;;;;;;;
2021/11/09 19:46:19;;;;;;;51.7;27.4;;;;;;;;;;;;;
2021/11/09 19:48:49;;;;;;;21.9;13.4;;;;;;;;;;;;;
2021/11/09 19:51:10;;;;;;;18.3;12.2;;;;;;;;;;;;;
2021/11/09 19:53:36;;;;;;;22.7;11.6;;;;;;;;;;;;;
2021/11/09 19:56:02;;;;;;;18.5;11.7;;;;;;;;;;;;;
2021/11/09 19:58:28;;;;;;;24.9;14.6;;;;;;;;;;;;;
2021/11/09 20:00:52;;;;;;;17.5;10.6;;;;;;;;;;;;;
2021/11/09 20:03:20;;;;;;;25.6;15.2;;;;;;;;;;;;;
2021/11/09 20:05:44;;;;;;;23.6;13.3;;;;;;;;;;;;;
2021/11/09 20:08:08;;;;;;;20.6;12.9;;;;;;;;;;;;;
2021/11/09 20:10:34;;;;;;;26.1;15.9;;;;;;;;;;;;;
2021/11/09 20:12:59;;;;;;;33.9;15.1;;;;;;;;;;;;;
2021/11/09 20:15:27;;;;;;;17.8;11;;;;;;;;;;;;;
2021/11/09 20:17:50;;;;;;;17.6;9.6;;;;;;;;;;;;;
2021/11/09 20:20:23;;;;;;;12.5;7.9;;;;;;;;;;;;;
2021/11/09 20:22:48;;;;;;;37.7;18.2;;;;;;;;;;;;;
2021/11/09 20:25:13;;;;;;;17.1;8.8;;;;;;;;;;;;;
2021/11/09 20:27:41;;;;;;;11.6;7.4;;;;;;;;;;;;;
2021/11/09 20:30:03;;;;;;;11.5;7.6;;;;;;;;;;;;;
2021/11/09 20:32:30;;;;;;;12.4;8.4;;;;;;;;;;;;;
2021/11/09 20:34:56;;;;;;;12.6;8.4;;;;;;;;;;;;;
2021/11/09 20:37:20;;;;;;;8.3;5.7;;;;;;;;;;;;;
2021/11/09 20:39:46;;;;;;;12.9;6.8;;;;;;;;;;;;;
2021/11/09 20:42:12;;;;;;;11.4;6.7;;;;;;;;;;;;;
2021/11/09 20:44:37;;;;;;;14.9;9.1;;;;;;;;;;;;;
2021/11/09 20:47:04;;;;;;;12.1;6.9;;;;;;;;;;;;;
2021/11/09 20:49:28;;;;;;;10.4;6.3;;;;;;;;;;;;;
2021/11/09 20:51:59;;;;;;;7.9;5.4;;;;;;;;;;;;;
2021/11/09 20:54:19;;;;;;;7.6;5.2;;;;;;;;;;;;;
2021/11/09 20:56:47;;;;;;;9.4;6;;;;;;;;;;;;;
2021/11/09 20:59:09;;;;;;;37.2;16.7;;;;;;;;;;;;;
2021/11/09 21:01:35;;;;;;;7.9;5;;;;;;;;;;;;;
2021/11/09 21:03:59;;;;;;;15.3;9.1;;;;;;;;;;;;;